createdAt,value
2017-06-01T00:00:37.740Z,41.83
2017-06-01T00:01:39.193Z,41.93
2017-06-01T00:02:40.627Z,41.64
2017-06-01T00:03:42.068Z,41.45
2017-06-01T00:04:43.512Z,41.83
2017-06-01T00:05:44.943Z,41.55
2017-06-01T00:06:46.375Z,41.55
2017-06-01T00:07:47.816Z,41.55
2017-06-01T00:08:49.261Z,41.45
2017-06-01T00:09:50.703Z,41.64
2017-06-01T00:10:52.141Z,41.72
2017-06-01T00:11:53.574Z,41.74
2017-06-01T00:12:55.010Z,41.83
2017-06-01T00:13:56.455Z,41.82
2017-06-01T00:14:57.882Z,41.64
2017-06-01T00:15:59.323Z,41.55
2017-06-01T00:17:00.762Z,41.35
2017-06-01T00:18:02.190Z,41.83
2017-06-01T00:19:03.633Z,41.35
2017-06-01T00:20:05.065Z,41.45
2017-06-01T00:21:06.496Z,41.55
2017-06-01T00:22:07.935Z,41.64
2017-06-01T00:23:09.373Z,41.52
2017-06-01T00:24:10.816Z,41.82
2017-06-01T00:25:12.251Z,41.82
2017-06-01T00:26:13.690Z,41.62
2017-06-01T00:27:15.132Z,41.82
2017-06-01T00:28:16.569Z,41.62
2017-06-01T00:29:18.014Z,41.62
2017-06-01T00:30:19.489Z,41.72
2017-06-01T00:31:20.924Z,41.91
2017-06-01T00:32:22.363Z,41.82
2017-06-01T00:33:23.799Z,41.82
2017-06-01T00:34:25.243Z,41.82
2017-06-01T00:35:26.676Z,41.82
2017-06-01T00:36:28.103Z,41.82
2017-06-01T00:37:29.557Z,41.72
2017-06-01T00:38:30.997Z,41.91
2017-06-01T00:39:32.434Z,41.82
2017-06-01T00:40:33.878Z,41.91
2017-06-01T00:41:35.313Z,41.82
2017-06-01T00:42:36.748Z,41.72
2017-06-01T00:43:38.184Z,41.52
2017-06-01T00:44:39.628Z,41.52
2017-06-01T00:45:41.064Z,41.82
2017-06-01T00:46:42.499Z,41.82
2017-06-01T00:47:43.941Z,41.42
2017-06-01T00:48:45.377Z,41.91
2017-06-01T00:49:46.840Z,41.62
2017-06-01T00:50:48.269Z,41.72
2017-06-01T00:51:49.715Z,41.82
2017-06-01T00:52:51.158Z,41.82
2017-06-01T00:53:52.597Z,41.62
2017-06-01T00:54:54.034Z,41.52
2017-06-01T00:55:55.473Z,41.62
2017-06-01T00:56:57.000Z,41.82
2017-06-01T00:57:58.433Z,41.52
2017-06-01T00:58:59.864Z,41.91
2017-06-01T01:00:01.342Z,41.82
2017-06-01T01:01:02.775Z,41.52
2017-06-01T01:02:04.213Z,41.82
2017-06-01T01:03:05.643Z,41.79
2017-06-01T01:04:07.085Z,41.89
2017-06-01T01:05:08.517Z,41.50
2017-06-01T01:06:09.950Z,41.50
2017-06-01T01:07:11.447Z,41.89
2017-06-01T01:08:12.884Z,41.52
2017-06-01T01:09:14.322Z,41.52
2017-06-01T01:10:15.756Z,41.50
2017-06-01T01:11:17.191Z,41.50
2017-06-01T01:12:18.622Z,41.79
2017-06-01T01:13:20.057Z,41.79
2017-06-01T01:14:21.521Z,41.89
2017-06-01T01:15:22.938Z,41.50
2017-06-01T01:16:24.375Z,41.70
2017-06-01T01:17:25.813Z,41.60
2017-06-01T01:18:27.254Z,41.70
2017-06-01T01:19:28.684Z,41.60
2017-06-01T01:20:30.116Z,41.70
2017-06-01T01:21:31.639Z,41.70
2017-06-01T01:22:33.077Z,41.60
2017-06-01T01:23:34.516Z,41.60
2017-06-01T01:24:35.962Z,41.50
2017-06-01T01:25:37.394Z,41.89
2017-06-01T01:26:38.832Z,41.60
2017-06-01T01:27:40.264Z,41.50
2017-06-01T01:28:41.699Z,41.50
2017-06-01T01:29:43.133Z,41.50
2017-06-01T01:30:44.565Z,41.79
2017-06-01T01:31:46.004Z,41.50
2017-06-01T01:32:47.434Z,41.70
2017-06-01T01:33:48.950Z,41.60
2017-06-01T01:34:50.381Z,41.60
2017-06-01T01:35:51.815Z,41.70
2017-06-01T01:36:53.252Z,41.50
2017-06-01T01:37:54.694Z,42.08
2017-06-01T01:38:56.136Z,41.99
2017-06-01T01:39:57.575Z,41.70
2017-06-01T01:40:59.064Z,41.70
2017-06-01T01:42:00.495Z,42.18
2017-06-01T01:43:01.934Z,41.99
2017-06-01T01:44:03.383Z,41.99
2017-06-01T01:45:04.817Z,41.99
2017-06-01T01:46:06.259Z,41.79
2017-06-01T01:47:07.726Z,42.18
2017-06-01T01:48:09.172Z,41.99
2017-06-01T01:49:10.601Z,42.47
2017-06-01T01:50:12.044Z,42.18
2017-06-01T01:51:13.491Z,42.57
2017-06-01T01:52:14.954Z,41.99
2017-06-01T01:53:16.387Z,42.47
2017-06-01T01:54:17.883Z,42.28
2017-06-01T01:55:19.268Z,42.08
2017-06-01T01:56:20.702Z,42.28
2017-06-01T01:57:22.141Z,42.28
2017-06-01T01:58:23.586Z,42.18
2017-06-01T01:59:25.031Z,41.99
2017-06-01T02:00:26.462Z,42.37
2017-06-01T02:01:27.897Z,42.28
2017-06-01T02:02:29.356Z,42.57
2017-06-01T02:03:30.787Z,42.55
2017-06-01T02:04:32.230Z,42.66
2017-06-01T02:05:33.697Z,42.57
2017-06-01T02:06:35.187Z,42.55
2017-06-01T02:07:36.621Z,42.08
2017-06-01T02:08:38.056Z,42.35
2017-06-01T02:09:39.490Z,42.37
2017-06-01T02:10:40.934Z,42.47
2017-06-01T02:11:42.371Z,42.45
2017-06-01T02:12:43.805Z,42.45
2017-06-01T02:13:45.240Z,42.35
2017-06-01T02:14:46.676Z,42.25
2017-06-01T02:15:48.110Z,42.25
2017-06-01T02:16:49.547Z,42.35
2017-06-01T02:17:50.986Z,42.35
2017-06-01T02:18:52.426Z,42.35
2017-06-01T02:19:53.868Z,42.25
2017-06-01T02:20:55.365Z,42.45
2017-06-01T02:21:56.802Z,42.35
2017-06-01T02:22:58.234Z,42.45
2017-06-01T02:23:59.676Z,42.55
2017-06-01T02:25:01.114Z,42.55
2017-06-01T02:26:02.548Z,42.16
2017-06-01T02:27:03.985Z,42.35
2017-06-01T02:28:05.427Z,42.55
2017-06-01T02:29:06.869Z,42.93
2017-06-01T02:30:08.302Z,42.93
2017-06-01T02:31:09.739Z,42.83
2017-06-01T02:32:11.173Z,42.83
2017-06-01T02:33:12.604Z,42.65
2017-06-01T02:34:14.040Z,42.74
2017-06-01T02:35:15.477Z,42.65
2017-06-01T02:36:16.914Z,42.93
2017-06-01T02:37:18.345Z,42.93
2017-06-01T02:38:19.809Z,43.01
2017-06-01T02:39:21.212Z,42.91
2017-06-01T02:40:22.651Z,42.91
2017-06-01T02:41:24.086Z,43.03
2017-06-01T02:42:25.528Z,43.03
2017-06-01T02:43:26.969Z,42.91
2017-06-01T02:44:28.409Z,43.03
2017-06-01T02:45:29.836Z,43.03
2017-06-01T02:46:31.266Z,42.91
2017-06-01T02:47:32.704Z,43.01
2017-06-01T02:48:34.137Z,43.01
2017-06-01T02:49:35.571Z,42.91
2017-06-01T02:50:37.015Z,42.91
2017-06-01T02:51:38.443Z,42.62
2017-06-01T02:52:39.876Z,42.33
2017-06-01T02:53:41.312Z,42.43
2017-06-01T02:55:22.311Z,42.45
2017-06-01T02:56:23.742Z,42.62
2017-06-01T02:57:25.171Z,42.52
2017-06-01T02:58:26.609Z,42.62
2017-06-01T02:59:28.050Z,42.62
2017-06-01T03:00:29.488Z,42.62
2017-06-01T03:01:30.932Z,42.91
2017-06-01T03:02:32.374Z,42.52
2017-06-01T03:03:33.809Z,42.62
2017-06-01T03:04:35.243Z,42.72
2017-06-01T03:05:36.678Z,42.72
2017-06-01T03:06:38.114Z,42.52
2017-06-01T03:07:39.548Z,42.52
2017-06-01T03:08:40.985Z,42.52
2017-06-01T03:09:42.423Z,42.52
2017-06-01T03:10:43.855Z,42.33
2017-06-01T03:11:45.291Z,42.62
2017-06-01T03:12:46.726Z,42.43
2017-06-01T03:13:48.159Z,42.52
2017-06-01T03:14:49.594Z,42.91
2017-06-01T03:15:51.025Z,42.72
2017-06-01T03:16:52.459Z,42.82
2017-06-01T03:17:53.900Z,42.82
2017-06-01T03:18:55.335Z,42.43
2017-06-01T03:19:56.765Z,42.52
2017-06-01T03:20:58.200Z,42.52
2017-06-01T03:21:59.636Z,42.62
2017-06-01T03:23:01.074Z,42.52
2017-06-01T03:24:02.511Z,42.52
2017-06-01T03:25:03.949Z,42.52
2017-06-01T03:26:05.395Z,42.72
2017-06-01T03:27:06.824Z,42.72
2017-06-01T03:28:08.257Z,42.43
2017-06-01T03:29:09.700Z,42.62
2017-06-01T03:30:11.139Z,42.43
2017-06-01T03:31:12.574Z,42.52
2017-06-01T03:32:14.010Z,42.52
2017-06-01T03:33:15.443Z,42.52
2017-06-01T03:34:16.878Z,42.14
2017-06-01T03:35:18.310Z,42.33
2017-06-01T03:36:19.745Z,42.43
2017-06-01T03:37:21.182Z,42.33
2017-06-01T03:38:22.622Z,42.43
2017-06-01T03:39:24.050Z,42.14
2017-06-01T03:40:25.490Z,42.52
2017-06-01T03:41:26.927Z,42.33
2017-06-01T03:42:28.356Z,42.52
2017-06-01T03:43:29.794Z,42.33
2017-06-01T03:44:31.247Z,42.33
2017-06-01T03:45:32.678Z,42.24
2017-06-01T03:46:34.111Z,42.52
2017-06-01T03:47:35.549Z,42.24
2017-06-01T03:48:37.053Z,42.43
2017-06-01T03:49:38.491Z,42.33
2017-06-01T03:50:39.931Z,42.33
2017-06-01T03:51:41.364Z,42.33
2017-06-01T03:52:42.804Z,42.52
2017-06-01T03:53:44.250Z,42.24
2017-06-01T03:54:45.685Z,42.24
2017-06-01T03:55:47.130Z,42.14
2017-06-01T03:56:48.565Z,42.62
2017-06-01T03:57:49.998Z,42.43
2017-06-01T03:58:51.437Z,42.43
2017-06-01T03:59:53.021Z,42.52
2017-06-01T04:00:54.439Z,42.52
2017-06-01T04:01:55.869Z,42.24
2017-06-01T04:02:57.351Z,42.24
2017-06-01T04:03:58.786Z,42.33
2017-06-01T04:05:01.192Z,42.43
2017-06-01T04:06:03.429Z,42.43
2017-06-01T04:07:06.417Z,42.33
2017-06-01T04:08:08.762Z,42.41
2017-06-01T04:09:10.050Z,42.12
2017-06-01T04:10:12.094Z,42.24
2017-06-01T04:11:13.528Z,42.14
2017-06-01T04:12:14.966Z,42.24
2017-06-01T04:13:16.396Z,42.14
2017-06-01T04:14:17.831Z,42.43
2017-06-01T04:15:19.264Z,42.33
2017-06-01T04:16:20.698Z,42.50
2017-06-01T04:17:22.134Z,42.31
2017-06-01T04:18:23.568Z,42.50
2017-06-01T04:19:25.011Z,42.31
2017-06-01T04:20:26.451Z,42.31
2017-06-01T04:21:27.888Z,42.21
2017-06-01T04:22:29.315Z,42.41
2017-06-01T04:23:30.751Z,42.31
2017-06-01T04:24:32.187Z,42.12
2017-06-01T04:25:33.624Z,42.79
2017-06-01T04:26:35.056Z,42.50
2017-06-01T04:27:36.498Z,42.60
2017-06-01T04:28:37.946Z,42.70
2017-06-01T04:29:39.382Z,42.41
2017-06-01T04:30:40.816Z,42.50
2017-06-01T04:31:42.253Z,42.41
2017-06-01T04:32:43.685Z,42.50
2017-06-01T04:33:45.122Z,42.50
2017-06-01T04:34:46.562Z,42.50
2017-06-01T04:35:47.993Z,42.70
2017-06-01T04:36:49.421Z,42.79
2017-06-01T04:37:50.857Z,42.70
2017-06-01T04:38:52.297Z,42.79
2017-06-01T04:39:53.735Z,43.08
2017-06-01T04:40:55.178Z,42.99
2017-06-01T04:41:56.625Z,42.79
2017-06-01T04:42:58.061Z,42.79
2017-06-01T04:43:59.503Z,42.99
2017-06-01T04:45:00.946Z,42.99
2017-06-01T04:46:02.389Z,42.99
2017-06-01T04:47:03.831Z,42.89
2017-06-01T04:48:05.267Z,42.89
2017-06-01T04:49:06.709Z,43.08
2017-06-01T04:50:08.148Z,43.08
2017-06-01T04:51:09.597Z,42.99
2017-06-01T04:52:11.032Z,43.08
2017-06-01T04:53:12.463Z,43.08
2017-06-01T04:54:13.909Z,43.08
2017-06-01T04:55:15.339Z,43.18
2017-06-01T04:56:16.792Z,43.28
2017-06-01T04:57:18.224Z,43.08
2017-06-01T04:58:19.661Z,42.99
2017-06-01T04:59:21.091Z,43.37
2017-06-01T05:00:22.535Z,43.08
2017-06-01T05:01:23.970Z,43.28
2017-06-01T05:02:25.400Z,43.08
2017-06-01T05:03:27.421Z,43.37
2017-06-01T05:04:28.862Z,43.08
2017-06-01T05:05:30.303Z,43.47
2017-06-01T05:06:31.739Z,43.18
2017-06-01T05:07:33.209Z,43.28
2017-06-01T05:08:34.641Z,43.28
2017-06-01T05:09:36.081Z,43.57
2017-06-01T05:10:37.520Z,44.05
2017-06-01T05:11:38.955Z,43.85
2017-06-01T05:12:40.388Z,43.76
2017-06-01T05:13:41.835Z,43.76
2017-06-01T05:14:43.273Z,43.66
2017-06-01T05:15:44.708Z,43.57
2017-06-01T05:16:46.145Z,43.76
2017-06-01T05:17:47.593Z,43.85
2017-06-01T05:18:49.038Z,43.95
2017-06-01T05:19:50.472Z,43.66
2017-06-01T05:20:51.927Z,44.15
2017-06-01T05:21:53.370Z,43.85
2017-06-01T05:22:54.813Z,43.85
2017-06-01T05:23:56.247Z,43.76
2017-06-01T05:24:57.688Z,43.66
2017-06-01T05:25:59.129Z,43.95
2017-06-01T05:27:00.565Z,44.05
2017-06-01T05:28:01.993Z,43.66
2017-06-01T05:29:03.441Z,43.85
2017-06-01T05:30:04.881Z,44.24
2017-06-01T05:31:06.319Z,44.15
2017-06-01T05:32:07.768Z,44.15
2017-06-01T05:33:09.257Z,44.34
2017-06-01T05:34:10.687Z,43.95
2017-06-01T05:35:12.127Z,44.43
2017-06-01T05:36:13.558Z,44.53
2017-06-01T05:37:14.992Z,44.63
2017-06-01T05:38:16.433Z,44.43
2017-06-01T05:39:17.875Z,44.43
2017-06-01T05:40:19.327Z,44.43
2017-06-01T05:41:20.759Z,44.53
2017-06-01T05:42:22.199Z,44.82
2017-06-01T05:43:23.642Z,44.24
2017-06-01T05:44:25.079Z,44.53
2017-06-01T05:45:26.517Z,44.92
2017-06-01T05:46:27.989Z,44.34
2017-06-01T05:47:29.402Z,44.24
2017-06-01T05:48:30.838Z,44.92
2017-06-01T05:49:32.277Z,44.82
2017-06-01T05:50:33.712Z,45.01
2017-06-01T05:51:35.159Z,44.82
2017-06-01T05:52:36.598Z,44.63
2017-06-01T05:53:38.050Z,44.92
2017-06-01T05:54:39.482Z,44.82
2017-06-01T05:55:40.921Z,44.92
2017-06-01T05:56:42.355Z,45.11
2017-06-01T05:57:43.794Z,45.01
2017-06-01T05:58:45.349Z,45.11
2017-06-01T05:59:46.790Z,44.92
2017-06-01T06:00:48.225Z,45.01
2017-06-01T06:01:49.686Z,45.11
2017-06-01T06:02:51.119Z,44.92
2017-06-01T06:03:52.547Z,44.92
2017-06-01T06:04:53.990Z,44.92
2017-06-01T06:05:55.421Z,44.73
2017-06-01T06:06:56.862Z,45.11
2017-06-01T06:07:58.303Z,45.40
2017-06-01T06:08:59.738Z,45.31
2017-06-01T06:10:01.181Z,45.01
2017-06-01T06:11:02.614Z,45.21
2017-06-01T06:12:04.047Z,45.21
2017-06-01T06:13:05.485Z,45.21
2017-06-01T06:14:06.920Z,45.11
2017-06-01T06:15:08.357Z,45.21
2017-06-01T06:16:09.794Z,45.11
2017-06-01T06:17:11.373Z,45.31
2017-06-01T06:18:12.808Z,45.11
2017-06-01T06:19:14.240Z,45.11
2017-06-01T06:20:15.702Z,45.21
2017-06-01T06:21:17.145Z,45.21
2017-06-01T06:22:18.580Z,45.50
2017-06-01T06:23:20.013Z,45.40
2017-06-01T06:24:21.451Z,45.59
2017-06-01T06:25:22.884Z,45.59
2017-06-01T06:26:24.321Z,45.69
2017-06-01T06:27:25.767Z,45.40
2017-06-01T06:28:27.205Z,45.79
2017-06-01T06:29:28.643Z,46.17
2017-06-01T06:30:30.083Z,45.40
2017-06-01T06:31:31.558Z,45.50
2017-06-01T06:32:32.989Z,45.69
2017-06-01T06:33:34.427Z,45.98
2017-06-01T06:34:35.867Z,46.08
2017-06-01T06:35:37.306Z,46.37
2017-06-01T06:36:38.748Z,46.08
2017-06-01T06:37:40.194Z,45.89
2017-06-01T06:38:41.628Z,45.59
2017-06-01T06:39:43.057Z,45.59
2017-06-01T06:40:44.494Z,46.27
2017-06-01T06:41:45.937Z,46.08
2017-06-01T06:42:47.372Z,46.08
2017-06-01T06:43:48.805Z,45.98
2017-06-01T06:44:50.245Z,46.37
2017-06-01T06:45:51.761Z,46.47
2017-06-01T06:46:53.196Z,46.66
2017-06-01T06:47:54.641Z,46.56
2017-06-01T06:48:56.080Z,46.66
2017-06-01T06:49:57.518Z,46.37
2017-06-01T06:50:58.954Z,46.47
2017-06-01T06:52:00.394Z,46.75
2017-06-01T06:53:01.829Z,46.47
2017-06-01T06:54:03.263Z,46.66
2017-06-01T06:55:04.697Z,46.75
2017-06-01T06:56:06.190Z,46.75
2017-06-01T06:57:07.623Z,46.56
2017-06-01T06:58:09.059Z,46.75
2017-06-01T06:59:10.501Z,46.56
2017-06-01T07:00:11.940Z,46.75
2017-06-01T07:01:13.412Z,46.75
2017-06-01T07:02:14.846Z,46.66
2017-06-01T07:03:16.285Z,46.37
2017-06-01T07:04:17.764Z,46.56
2017-06-01T07:05:19.201Z,46.37
2017-06-01T07:06:20.644Z,47.05
2017-06-01T07:07:22.090Z,46.85
2017-06-01T07:08:23.530Z,46.75
2017-06-01T07:09:24.966Z,47.14
2017-06-01T07:10:26.412Z,46.95
2017-06-01T07:11:27.844Z,46.85
2017-06-01T07:12:29.278Z,47.05
2017-06-01T07:13:30.715Z,46.85
2017-06-01T07:14:32.153Z,46.95
2017-06-01T07:15:33.610Z,47.05
2017-06-01T07:16:35.048Z,46.75
2017-06-01T07:17:36.492Z,46.85
2017-06-01T07:18:37.975Z,47.24
2017-06-01T07:19:39.421Z,46.95
2017-06-01T07:20:40.860Z,46.95
2017-06-01T07:21:42.301Z,47.05
2017-06-01T07:22:43.785Z,47.14
2017-06-01T07:23:45.216Z,47.05
2017-06-01T07:24:46.651Z,46.75
2017-06-01T07:25:48.087Z,47.24
2017-06-01T07:26:49.548Z,47.24
2017-06-01T07:27:50.999Z,46.66
2017-06-01T07:28:52.444Z,46.85
2017-06-01T07:29:53.880Z,47.05
2017-06-01T07:30:55.316Z,46.47
2017-06-01T07:31:56.756Z,46.75
2017-06-01T07:32:58.232Z,46.56
2017-06-01T07:33:59.672Z,46.75
2017-06-01T07:35:01.104Z,46.75
2017-06-01T07:36:02.543Z,46.66
2017-06-01T07:37:03.975Z,46.37
2017-06-01T07:38:05.407Z,46.56
2017-06-01T07:39:06.844Z,46.56
2017-06-01T07:40:08.287Z,46.17
2017-06-01T07:41:09.734Z,46.08
2017-06-01T07:42:11.172Z,45.89
2017-06-01T07:43:12.606Z,45.59
2017-06-01T07:44:14.044Z,45.69
2017-06-01T07:45:15.489Z,45.79
2017-06-01T07:46:16.927Z,45.11
2017-06-01T07:47:18.359Z,45.40
2017-06-01T07:48:19.796Z,45.21
2017-06-01T07:49:21.233Z,45.31
2017-06-01T07:50:22.667Z,45.21
2017-06-01T07:51:24.107Z,45.21
2017-06-01T07:52:25.552Z,45.40
2017-06-01T07:53:26.986Z,45.21
2017-06-01T07:54:28.424Z,45.21
2017-06-01T07:55:29.858Z,45.31
2017-06-01T07:56:31.299Z,45.21
2017-06-01T07:57:32.735Z,45.21
2017-06-01T07:58:34.166Z,44.92
2017-06-01T07:59:35.710Z,45.69
2017-06-01T08:00:37.162Z,45.59
2017-06-01T08:01:38.599Z,45.59
2017-06-01T08:02:40.037Z,45.33
2017-06-01T08:03:41.510Z,45.33
2017-06-01T08:04:42.948Z,45.52
2017-06-01T08:05:44.381Z,45.72
2017-06-01T08:06:45.865Z,45.52
2017-06-01T08:07:47.298Z,45.14
2017-06-01T08:08:48.737Z,45.21
2017-06-01T08:09:50.171Z,45.42
2017-06-01T08:10:51.612Z,45.52
2017-06-01T08:11:53.042Z,45.42
2017-06-01T08:12:54.470Z,45.04
2017-06-01T08:13:55.917Z,45.72
2017-06-01T08:14:57.363Z,45.81
2017-06-01T08:15:58.799Z,45.81
2017-06-01T08:17:00.242Z,45.23
2017-06-01T08:18:01.736Z,45.81
2017-06-01T08:19:03.172Z,45.72
2017-06-01T08:20:04.618Z,45.42
2017-06-01T08:21:06.060Z,46.00
2017-06-01T08:22:07.497Z,46.10
2017-06-01T08:23:08.934Z,46.49
2017-06-01T08:24:10.376Z,46.49
2017-06-01T08:25:11.812Z,46.20
2017-06-01T08:26:13.250Z,45.81
2017-06-01T08:27:14.681Z,45.62
2017-06-01T08:28:16.119Z,46.00
2017-06-01T08:29:17.603Z,46.20
2017-06-01T08:30:19.043Z,46.68
2017-06-01T08:31:20.479Z,46.58
2017-06-01T08:32:21.920Z,46.49
2017-06-01T08:33:23.357Z,46.49
2017-06-01T08:34:24.786Z,46.39
2017-06-01T08:35:26.286Z,46.49
2017-06-01T08:36:27.738Z,46.49
2017-06-01T08:37:29.173Z,46.20
2017-06-01T08:38:30.628Z,46.00
2017-06-01T08:39:32.067Z,46.00
2017-06-01T08:40:33.500Z,45.81
2017-06-01T08:41:34.930Z,45.72
2017-06-01T08:42:36.364Z,45.23
2017-06-01T08:43:37.817Z,45.23
2017-06-01T08:44:39.258Z,45.23
2017-06-01T08:45:40.702Z,45.23
2017-06-01T08:46:42.152Z,45.33
2017-06-01T08:47:43.596Z,44.94
2017-06-01T08:48:45.029Z,45.14
2017-06-01T08:49:46.468Z,45.04
2017-06-01T08:50:47.907Z,45.14
2017-06-01T08:51:49.343Z,45.04
2017-06-01T08:52:50.796Z,44.87
2017-06-01T08:53:52.230Z,44.67
2017-06-01T08:54:53.669Z,44.46
2017-06-01T08:55:55.112Z,44.56
2017-06-01T08:56:56.553Z,43.99
2017-06-01T08:57:57.992Z,44.19
2017-06-01T08:58:59.430Z,44.17
2017-06-01T09:00:00.864Z,43.88
2017-06-01T09:01:02.308Z,43.88
2017-06-01T09:02:03.755Z,43.90
2017-06-01T09:03:05.199Z,43.99
2017-06-01T09:04:06.626Z,43.80
2017-06-01T09:05:08.071Z,43.80
2017-06-01T09:06:09.516Z,43.80
2017-06-01T09:07:10.955Z,43.41
2017-06-01T09:08:12.395Z,43.61
2017-06-01T09:09:13.898Z,43.41
2017-06-01T09:10:15.336Z,43.13
2017-06-01T09:11:16.779Z,43.23
2017-06-01T09:12:18.217Z,43.13
2017-06-01T09:13:19.652Z,43.23
2017-06-01T09:14:21.096Z,43.13
2017-06-01T09:15:22.541Z,42.93
2017-06-01T09:16:23.976Z,42.74
2017-06-01T09:17:25.416Z,42.55
2017-06-01T09:18:26.856Z,42.35
2017-06-01T09:19:28.298Z,42.25
2017-06-01T09:20:29.734Z,42.25
2017-06-01T09:21:31.175Z,42.74
2017-06-01T09:22:32.623Z,42.55
2017-06-01T09:23:34.064Z,42.74
2017-06-01T09:24:35.501Z,42.25
2017-06-01T09:25:36.943Z,41.67
2017-06-01T09:26:38.377Z,41.09
2017-06-01T09:27:39.822Z,40.71
2017-06-01T09:28:41.256Z,40.71
2017-06-01T09:29:42.696Z,41.00
2017-06-01T09:30:44.131Z,40.61
2017-06-01T09:31:45.597Z,40.42
2017-06-01T09:32:47.029Z,40.92
2017-06-01T09:33:48.461Z,40.71
2017-06-01T09:34:49.909Z,40.73
2017-06-01T09:35:51.357Z,40.73
2017-06-01T09:36:52.792Z,40.83
2017-06-01T09:37:54.258Z,40.92
2017-06-01T09:38:55.778Z,40.71
2017-06-01T09:39:57.225Z,40.81
2017-06-01T09:40:58.666Z,40.81
2017-06-01T09:42:00.111Z,40.73
2017-06-01T09:43:01.547Z,40.92
2017-06-01T09:44:02.985Z,40.73
2017-06-01T09:45:04.419Z,40.92
2017-06-01T09:46:05.856Z,40.53
2017-06-01T09:47:07.294Z,40.44
2017-06-01T09:48:08.725Z,39.95
2017-06-01T09:49:10.173Z,40.05
2017-06-01T09:50:11.605Z,40.05
2017-06-01T09:51:13.042Z,39.86
2017-06-01T09:52:14.485Z,40.53
2017-06-01T09:53:15.924Z,40.73
2017-06-01T09:54:17.360Z,40.53
2017-06-01T09:55:18.801Z,40.73
2017-06-01T09:56:20.240Z,39.76
2017-06-01T09:57:21.745Z,40.05
2017-06-01T09:58:23.183Z,39.95
2017-06-01T09:59:24.616Z,39.95
2017-06-01T10:00:26.073Z,39.57
2017-06-01T10:01:27.508Z,39.09
2017-06-01T10:02:28.944Z,38.89
2017-06-01T10:03:30.377Z,38.79
2017-06-01T10:04:31.817Z,38.79
2017-06-01T10:05:33.258Z,38.70
2017-06-01T10:06:34.697Z,38.31
2017-06-01T10:07:36.132Z,38.12
2017-06-01T10:08:37.568Z,38.02
2017-06-01T10:09:39.009Z,38.02
2017-06-01T10:10:40.447Z,38.12
2017-06-01T10:11:41.885Z,37.63
2017-06-01T10:12:43.321Z,37.82
2017-06-01T10:13:44.754Z,37.73
2017-06-01T10:14:46.197Z,37.44
2017-06-01T10:15:47.639Z,37.54
2017-06-01T10:16:49.076Z,37.34
2017-06-01T10:17:50.520Z,37.73
2017-06-01T10:18:51.967Z,37.73
2017-06-01T10:19:53.410Z,37.54
2017-06-01T10:20:54.863Z,37.63
2017-06-01T10:21:56.284Z,37.73
2017-06-01T10:22:57.771Z,37.54
2017-06-01T10:23:59.210Z,37.82
2017-06-01T10:25:00.643Z,37.65
2017-06-01T10:26:02.232Z,37.34
2017-06-01T10:27:03.666Z,37.55
2017-06-01T10:28:05.106Z,37.46
2017-06-01T10:29:06.537Z,37.55
2017-06-01T10:30:07.974Z,37.65
2017-06-01T10:31:09.461Z,37.75
2017-06-01T10:32:10.849Z,37.65
2017-06-01T10:33:12.283Z,37.85
2017-06-01T10:34:13.728Z,37.85
2017-06-01T10:35:15.159Z,37.46
2017-06-01T10:36:16.600Z,37.55
2017-06-01T10:37:18.087Z,37.36
2017-06-01T10:38:19.525Z,37.46
2017-06-01T10:39:20.973Z,36.98
2017-06-01T10:40:22.416Z,36.40
2017-06-01T10:41:23.881Z,36.20
2017-06-01T10:42:25.317Z,36.00
2017-06-01T10:43:26.750Z,35.81
2017-06-01T10:44:28.182Z,35.91
2017-06-01T10:45:29.653Z,36.10
2017-06-01T10:46:31.095Z,36.00
2017-06-01T10:47:33.302Z,36.58
2017-06-01T10:48:34.737Z,36.00
2017-06-01T10:49:36.175Z,35.91
2017-06-01T10:50:37.609Z,35.93
2017-06-01T10:51:39.056Z,36.00
2017-06-01T10:52:40.493Z,36.40
2017-06-01T10:53:41.929Z,37.38
2017-06-01T10:54:43.367Z,37.75
2017-06-01T10:55:44.805Z,38.45
2017-06-01T10:56:46.241Z,38.73
2017-06-01T10:57:47.682Z,38.83
2017-06-01T10:58:49.118Z,38.54
2017-06-01T10:59:50.562Z,38.54
2017-06-01T11:00:52.008Z,38.45
2017-06-01T11:01:53.447Z,38.35
2017-06-01T11:02:54.887Z,38.06
2017-06-01T11:03:56.334Z,38.15
2017-06-01T11:04:57.770Z,37.77
2017-06-01T11:05:59.204Z,38.06
2017-06-01T11:07:00.650Z,37.59
2017-06-01T11:08:02.092Z,37.88
2017-06-01T11:09:03.534Z,37.49
2017-06-01T11:10:04.977Z,36.91
2017-06-01T11:11:06.429Z,36.62
2017-06-01T11:12:07.863Z,36.24
2017-06-01T11:13:09.313Z,36.52
2017-06-01T11:14:10.753Z,36.82
2017-06-01T11:15:12.184Z,36.72
2017-06-01T11:16:13.639Z,36.91
2017-06-01T11:17:15.071Z,36.74
2017-06-01T11:18:16.518Z,36.54
2017-06-01T11:19:17.950Z,35.28
2017-06-01T11:20:19.391Z,35.77
2017-06-01T11:21:20.830Z,35.28
2017-06-01T11:22:22.268Z,35.28
2017-06-01T11:23:23.706Z,35.09
2017-06-01T11:24:25.139Z,35.38
2017-06-01T11:25:26.581Z,35.57
2017-06-01T11:26:28.013Z,35.57
2017-06-01T11:27:29.452Z,35.19
2017-06-01T11:28:30.887Z,34.89
2017-06-01T11:29:32.325Z,34.41
2017-06-01T11:30:33.765Z,34.12
2017-06-01T11:31:35.203Z,34.02
2017-06-01T11:32:36.636Z,34.22
2017-06-01T11:33:38.070Z,34.22
2017-06-01T11:34:39.514Z,34.12
2017-06-01T11:35:40.948Z,34.51
2017-06-01T11:36:42.389Z,34.89
2017-06-01T11:37:43.831Z,34.99
2017-06-01T11:38:45.261Z,34.72
2017-06-01T11:39:46.706Z,34.23
2017-06-01T11:40:48.146Z,33.46
2017-06-01T11:41:49.594Z,33.84
2017-06-01T11:42:51.031Z,33.46
2017-06-01T11:43:52.466Z,32.29
2017-06-01T11:44:53.909Z,32.00
2017-06-01T11:45:55.906Z,31.81
2017-06-01T11:46:57.345Z,32.49
2017-06-01T11:47:58.777Z,32.39
2017-06-01T11:49:00.219Z,31.81
2017-06-01T11:50:01.665Z,31.91
2017-06-01T11:51:03.099Z,31.52
2017-06-01T11:52:04.540Z,31.52
2017-06-01T11:53:05.980Z,31.23
2017-06-01T11:54:07.414Z,31.23
2017-06-01T11:55:08.848Z,31.23
2017-06-01T11:56:10.291Z,31.32
2017-06-01T11:57:11.721Z,32.00
2017-06-01T11:58:13.164Z,31.63
2017-06-01T11:59:14.607Z,32.02
2017-06-01T12:00:16.046Z,31.34
2017-06-01T12:01:17.485Z,31.34
2017-06-01T12:02:18.994Z,31.34
2017-06-01T12:03:20.373Z,31.53
2017-06-01T12:04:21.809Z,31.53
2017-06-01T12:05:23.270Z,31.53
2017-06-01T12:06:24.706Z,31.24
2017-06-01T12:07:26.160Z,31.24
2017-06-01T12:08:27.600Z,31.44
2017-06-01T12:09:29.029Z,31.63
2017-06-01T12:10:30.470Z,31.34
2017-06-01T12:11:31.911Z,31.34
2017-06-01T12:12:33.345Z,31.44
2017-06-01T12:13:34.791Z,31.53
2017-06-01T12:14:36.237Z,31.26
2017-06-01T12:15:37.872Z,31.24
2017-06-01T12:16:39.312Z,31.35
2017-06-01T12:17:40.756Z,31.16
2017-06-01T12:18:42.199Z,31.35
2017-06-01T12:19:43.644Z,31.26
2017-06-01T12:20:45.079Z,30.58
2017-06-01T12:21:46.515Z,30.19
2017-06-01T12:22:47.957Z,30.48
2017-06-01T12:23:49.388Z,30.48
2017-06-01T12:24:50.826Z,29.80
2017-06-01T12:25:52.266Z,29.71
2017-06-01T12:26:53.705Z,29.32
2017-06-01T12:27:55.143Z,28.93
2017-06-01T12:28:56.582Z,28.64
2017-06-01T12:29:58.017Z,28.64
2017-06-01T12:30:59.450Z,28.54
2017-06-01T12:32:00.895Z,28.25
2017-06-01T12:33:02.338Z,28.44
2017-06-01T12:34:03.776Z,28.15
2017-06-01T12:35:05.220Z,28.54
2017-06-01T12:36:06.659Z,28.54
2017-06-01T12:37:08.098Z,28.74
2017-06-01T12:38:09.540Z,28.83
2017-06-01T12:39:10.969Z,27.86
2017-06-01T12:40:12.405Z,28.05
2017-06-01T12:41:13.843Z,27.86
2017-06-01T12:42:15.283Z,27.76
2017-06-01T12:43:16.725Z,27.76
2017-06-01T12:44:18.159Z,27.96
2017-06-01T12:45:19.590Z,28.07
2017-06-01T12:46:21.038Z,28.15
2017-06-01T12:47:22.479Z,28.25
2017-06-01T12:48:23.916Z,28.34
2017-06-01T12:49:25.357Z,28.26
2017-06-01T12:50:26.792Z,28.55
2017-06-01T12:51:28.228Z,28.55
2017-06-01T12:52:29.670Z,28.45
2017-06-01T12:53:31.105Z,28.65
2017-06-01T12:54:32.550Z,28.55
2017-06-01T12:55:33.984Z,28.75
2017-06-01T12:56:35.424Z,28.85
2017-06-01T12:57:36.858Z,28.75
2017-06-01T12:58:38.309Z,28.65
2017-06-01T12:59:39.754Z,28.55
2017-06-01T13:00:41.192Z,28.55
2017-06-01T13:01:42.635Z,27.68
2017-06-01T13:02:44.083Z,27.29
2017-06-01T13:03:45.522Z,27.19
2017-06-01T13:04:46.966Z,27.58
2017-06-01T13:05:48.403Z,27.58
2017-06-01T13:06:49.845Z,27.48
2017-06-01T13:07:51.282Z,27.48
2017-06-01T13:08:52.720Z,27.48
2017-06-01T13:09:54.189Z,27.68
2017-06-01T13:10:55.620Z,27.97
2017-06-01T13:11:57.073Z,27.58